createdAt,value
2018-08-11T00:00:43.463Z,24.88
2018-08-11T00:01:43.460Z,24.93
2018-08-11T00:02:43.455Z,24.93
2018-08-11T00:03:43.454Z,24.92
2018-08-11T00:04:43.442Z,24.88
2018-08-11T00:05:43.437Z,24.88
2018-08-11T00:06:43.433Z,24.89
2018-08-11T00:07:43.427Z,24.85
2018-08-11T00:08:43.422Z,24.89
2018-08-11T00:09:43.415Z,24.84
2018-08-11T00:10:43.408Z,24.86
2018-08-11T00:11:43.404Z,24.85
2018-08-11T00:12:43.402Z,24.82
2018-08-11T00:13:43.392Z,24.92
2018-08-11T00:14:43.388Z,24.85
2018-08-11T00:15:43.384Z,24.93
2018-08-11T00:16:43.376Z,24.92
2018-08-11T00:17:43.374Z,24.85
2018-08-11T00:18:43.366Z,24.82
2018-08-11T00:19:43.361Z,24.86
2018-08-11T00:20:43.360Z,24.89
2018-08-11T00:21:43.363Z,24.89
2018-08-11T00:22:43.347Z,24.86
2018-08-11T00:23:43.338Z,24.86
2018-08-11T00:24:43.334Z,24.82
2018-08-11T00:25:43.327Z,24.84
2018-08-11T00:26:43.320Z,24.85
2018-08-11T00:27:43.316Z,24.86
2018-08-11T00:28:43.310Z,24.84
2018-08-11T00:29:43.307Z,24.92
2018-08-11T00:30:43.314Z,24.86
2018-08-11T00:31:43.296Z,24.89
2018-08-11T00:32:43.293Z,24.84
2018-08-11T00:33:43.286Z,24.89
2018-08-11T00:34:43.280Z,24.85
2018-08-11T00:35:43.274Z,24.82
2018-08-11T00:36:43.272Z,24.86
2018-08-11T00:37:43.263Z,24.96
2018-08-11T00:38:43.262Z,24.94
2018-08-11T00:39:43.252Z,24.96
2018-08-11T00:40:43.247Z,24.99
2018-08-11T00:41:43.245Z,24.96
2018-08-11T00:42:43.237Z,24.96
2018-08-11T00:43:43.230Z,25.01
2018-08-11T00:44:43.227Z,25.00
2018-08-11T00:45:43.224Z,24.97
2018-08-11T00:46:43.214Z,25.00
2018-08-11T00:47:43.212Z,25.07
2018-08-11T00:48:43.211Z,25.03
2018-08-11T00:49:43.199Z,24.99
2018-08-11T00:50:43.192Z,24.96
2018-08-11T00:51:43.189Z,25.04
2018-08-11T00:52:43.181Z,25.00
2018-08-11T00:53:43.179Z,25.06
2018-08-11T00:54:43.175Z,25.07
2018-08-11T00:55:43.166Z,25.04
2018-08-11T00:56:43.161Z,25.06
2018-08-11T00:57:43.157Z,25.09
2018-08-11T00:58:43.155Z,24.99
2018-08-11T00:59:43.147Z,25.04
2018-08-11T01:00:43.168Z,25.01
2018-08-11T01:01:43.135Z,25.03
2018-08-11T01:02:43.136Z,24.99
2018-08-11T01:03:43.134Z,24.99
2018-08-11T01:04:43.120Z,25.07
2018-08-11T01:05:43.111Z,25.03
2018-08-11T01:06:43.131Z,25.11
2018-08-11T01:07:43.116Z,25.11
2018-08-11T01:08:43.097Z,25.04
2018-08-11T01:09:43.092Z,25.04
2018-08-11T01:10:43.089Z,25.07
2018-08-11T01:11:43.082Z,25.09
2018-08-11T01:12:43.082Z,25.01
2018-08-11T01:13:43.074Z,25.04
2018-08-11T01:14:43.070Z,25.03
2018-08-11T01:15:43.062Z,25.09
2018-08-11T01:16:43.061Z,25.01
2018-08-11T01:17:43.049Z,24.94
2018-08-11T01:18:43.044Z,25.03
2018-08-11T01:19:43.040Z,24.99
2018-08-11T01:20:43.040Z,25.01
2018-08-11T01:21:43.034Z,24.99
2018-08-11T01:22:43.031Z,24.99
2018-08-11T01:23:43.020Z,25.01
2018-08-11T01:24:43.019Z,25.01
2018-08-11T01:25:43.008Z,24.97
2018-08-11T01:26:43.005Z,25.01
2018-08-11T01:27:43.006Z,24.99
2018-08-11T01:28:42.993Z,25.09
2018-08-11T01:29:42.989Z,25.00
2018-08-11T01:30:42.996Z,24.99
2018-08-11T01:31:42.978Z,25.09
2018-08-11T01:32:42.972Z,24.97
2018-08-11T01:33:42.967Z,25.00
2018-08-11T01:34:42.958Z,25.01
2018-08-11T01:35:42.957Z,25.01
2018-08-11T01:36:42.948Z,25.00
2018-08-11T01:37:42.946Z,25.09
2018-08-11T01:38:42.943Z,25.00
2018-08-11T01:39:42.936Z,25.12
2018-08-11T01:40:42.934Z,25.00
2018-08-11T01:41:42.925Z,24.97
2018-08-11T01:42:42.922Z,24.97
2018-08-11T01:43:42.914Z,24.96
2018-08-11T01:44:42.909Z,24.94
2018-08-11T01:45:42.903Z,24.85
2018-08-11T01:46:42.898Z,24.88
2018-08-11T01:47:42.898Z,24.86
2018-08-11T01:48:42.888Z,24.81
2018-08-11T01:49:42.887Z,24.65
2018-08-11T01:50:42.880Z,24.77
2018-08-11T01:51:42.876Z,24.78
2018-08-11T01:52:42.870Z,24.79
2018-08-11T01:53:42.861Z,24.81
2018-08-11T01:54:42.855Z,24.84
2018-08-11T01:55:42.856Z,24.85
2018-08-11T01:56:42.852Z,24.79
2018-08-11T01:57:42.853Z,24.82
2018-08-11T01:58:42.835Z,24.84
2018-08-11T01:59:42.832Z,24.81
2018-08-11T02:00:42.825Z,24.68
2018-08-11T02:01:42.820Z,24.77
2018-08-11T02:02:42.816Z,24.74
2018-08-11T02:03:42.818Z,24.81
2018-08-11T02:04:42.804Z,24.74
2018-08-11T02:05:42.801Z,24.69
2018-08-11T02:06:42.793Z,24.74
2018-08-11T02:07:42.792Z,24.69
2018-08-11T02:08:42.781Z,24.69
2018-08-11T02:09:42.779Z,24.78
2018-08-11T02:10:42.771Z,24.78
2018-08-11T02:11:42.767Z,24.84
2018-08-11T02:12:42.762Z,24.88
2018-08-11T02:13:42.756Z,24.86
2018-08-11T02:14:42.753Z,24.85
2018-08-11T02:15:42.745Z,24.77
2018-08-11T02:16:42.748Z,24.88
2018-08-11T02:17:42.733Z,24.84
2018-08-11T02:18:42.732Z,24.92
2018-08-11T02:19:42.732Z,24.86
2018-08-11T02:20:42.722Z,24.84
2018-08-11T02:21:42.717Z,24.85
2018-08-11T02:22:42.709Z,24.85
2018-08-11T02:23:42.706Z,24.97
2018-08-11T02:24:42.712Z,24.88
2018-08-11T02:25:42.699Z,24.84
2018-08-11T02:26:42.687Z,24.85
2018-08-11T02:27:42.682Z,24.97
2018-08-11T02:28:42.677Z,24.81
2018-08-11T02:29:42.670Z,25.00
2018-08-11T02:30:42.668Z,24.94
2018-08-11T02:31:42.665Z,24.85
2018-08-11T02:32:42.662Z,24.86
2018-08-11T02:33:42.650Z,24.92
2018-08-11T02:34:42.645Z,24.85
2018-08-11T02:35:42.639Z,24.89
2018-08-11T02:36:42.633Z,24.92
2018-08-11T02:37:42.628Z,24.82
2018-08-11T02:38:42.624Z,24.88
2018-08-11T02:39:42.619Z,24.88
2018-08-11T02:40:42.612Z,24.82
2018-08-11T02:41:42.616Z,24.86
2018-08-11T02:42:42.611Z,24.92
2018-08-11T02:43:42.595Z,24.78
2018-08-11T02:44:42.596Z,24.94
2018-08-11T02:45:42.588Z,24.85
2018-08-11T02:46:42.588Z,24.79
2018-08-11T02:47:42.578Z,24.84
2018-08-11T02:48:42.572Z,24.79
2018-08-11T02:49:42.569Z,24.85
2018-08-11T02:50:42.569Z,24.79
2018-08-11T02:51:42.556Z,24.79
2018-08-11T02:52:42.549Z,24.81
2018-08-11T02:53:42.544Z,24.81
2018-08-11T02:54:42.547Z,24.74
2018-08-11T02:55:42.545Z,24.79
2018-08-11T02:56:42.529Z,24.75
2018-08-11T02:57:42.524Z,24.78
2018-08-11T02:58:42.518Z,24.81
2018-08-11T02:59:42.518Z,24.71
2018-08-11T03:00:42.509Z,24.78
2018-08-11T03:01:42.502Z,24.75
2018-08-11T03:02:42.503Z,24.69
2018-08-11T03:03:42.491Z,24.69
2018-08-11T03:04:42.482Z,24.82
2018-08-11T03:05:42.510Z,24.78
2018-08-11T03:06:42.480Z,24.69
2018-08-11T03:07:42.486Z,24.82
2018-08-11T03:08:42.470Z,24.77
2018-08-11T03:09:42.460Z,24.71
2018-08-11T03:10:42.456Z,24.69
2018-08-11T03:11:42.450Z,24.79
2018-08-11T03:12:42.445Z,24.71
2018-08-11T03:13:42.440Z,24.74
2018-08-11T03:14:42.435Z,24.68
2018-08-11T03:15:42.427Z,24.66
2018-08-11T03:16:42.425Z,24.79
2018-08-11T03:17:42.434Z,24.68
2018-08-11T03:18:42.417Z,24.69
2018-08-11T03:19:42.412Z,24.69
2018-08-11T03:20:42.402Z,24.69
2018-08-11T03:21:42.401Z,24.74
2018-08-11T03:22:42.389Z,24.77
2018-08-11T03:23:42.385Z,24.63
2018-08-11T03:24:42.380Z,24.69
2018-08-11T03:25:42.379Z,24.68
2018-08-11T03:26:42.375Z,24.66
2018-08-11T03:27:42.366Z,24.62
2018-08-11T03:28:42.360Z,24.71
2018-08-11T03:29:42.356Z,24.69
2018-08-11T03:30:42.344Z,24.66
2018-08-11T03:31:42.348Z,24.69
2018-08-11T03:32:42.337Z,24.69
2018-08-11T03:33:42.331Z,24.68
2018-08-11T03:34:42.331Z,24.68
2018-08-11T03:35:42.323Z,24.68
2018-08-11T03:36:42.317Z,24.63
2018-08-11T03:37:42.311Z,24.66
2018-08-11T03:38:42.306Z,24.66
2018-08-11T03:39:42.304Z,24.69
2018-08-11T03:40:42.293Z,24.69
2018-08-11T03:41:42.293Z,24.68
2018-08-11T03:42:42.284Z,24.68
2018-08-11T03:43:42.289Z,24.71
2018-08-11T03:44:42.277Z,24.75
2018-08-11T03:45:42.268Z,24.68
2018-08-11T03:46:42.268Z,24.69
2018-08-11T03:47:42.258Z,24.66
2018-08-11T03:48:42.259Z,24.66
2018-08-11T03:49:42.248Z,24.66
2018-08-11T03:50:42.242Z,24.61
2018-08-11T03:51:42.238Z,24.59
2018-08-11T03:52:42.238Z,24.62
2018-08-11T03:53:42.225Z,24.66
2018-08-11T03:54:42.223Z,24.56
2018-08-11T03:55:42.235Z,24.62
2018-08-11T03:56:42.211Z,24.62
2018-08-11T03:57:42.205Z,24.66
2018-08-11T03:58:42.197Z,24.62
2018-08-11T03:59:42.198Z,24.66
2018-08-11T04:00:42.198Z,24.74
2018-08-11T04:01:42.190Z,24.63
2018-08-11T04:02:42.179Z,24.68
2018-08-11T04:03:42.173Z,24.65
2018-08-11T04:04:42.168Z,24.66
2018-08-11T04:05:42.164Z,24.55
2018-08-11T04:06:42.255Z,24.59
2018-08-11T04:07:42.150Z,24.51
2018-08-11T04:08:42.143Z,24.50
2018-08-11T04:09:42.141Z,24.51
2018-08-11T04:10:42.143Z,24.47
2018-08-11T04:11:42.128Z,24.46
2018-08-11T04:12:42.129Z,24.44
2018-08-11T04:13:42.120Z,24.40
2018-08-11T04:14:42.118Z,24.43
2018-08-11T04:15:42.110Z,24.40
2018-08-11T04:16:42.101Z,24.34
2018-08-11T04:17:42.106Z,24.40
2018-08-11T04:18:42.094Z,24.29
2018-08-11T04:19:42.094Z,24.28
2018-08-11T04:20:42.082Z,24.29
2018-08-11T04:21:42.076Z,24.26
2018-08-11T04:22:42.074Z,24.29
2018-08-11T04:23:42.066Z,24.32
2018-08-11T04:24:42.061Z,24.28
2018-08-11T04:25:42.055Z,24.31
2018-08-11T04:26:42.050Z,24.26
2018-08-11T04:27:42.044Z,24.37
2018-08-11T04:28:42.039Z,24.32
2018-08-11T04:29:42.035Z,24.31
2018-08-11T04:30:42.028Z,24.29
2018-08-11T04:31:42.023Z,24.21
2018-08-11T04:32:42.016Z,24.22
2018-08-11T04:33:42.012Z,24.26
2018-08-11T04:34:42.010Z,24.26
2018-08-11T04:35:42.050Z,24.16
2018-08-11T04:36:41.999Z,24.16
2018-08-11T04:37:41.990Z,24.11
2018-08-11T04:38:41.987Z,24.10
2018-08-11T04:39:41.977Z,24.10
2018-08-11T04:40:41.972Z,23.99
2018-08-11T04:41:41.968Z,23.96
2018-08-11T04:42:41.962Z,23.92
2018-08-11T04:43:41.957Z,23.94
2018-08-11T04:44:41.954Z,23.96
2018-08-11T04:45:41.953Z,24.09
2018-08-11T04:46:41.940Z,24.04
2018-08-11T04:47:41.935Z,23.99
2018-08-11T04:48:41.931Z,24.04
2018-08-11T04:49:41.920Z,23.92
2018-08-11T04:50:41.918Z,24.07
2018-08-11T04:51:41.921Z,24.01
2018-08-11T04:52:41.908Z,23.92
2018-08-11T04:53:41.906Z,23.92
2018-08-11T04:54:41.896Z,23.99
2018-08-11T04:55:41.893Z,23.99
2018-08-11T04:56:41.885Z,24.01
2018-08-11T04:57:41.878Z,23.99
2018-08-11T04:58:41.873Z,23.89
2018-08-11T04:59:41.866Z,24.04
2018-08-11T05:00:41.898Z,24.01
2018-08-11T05:01:41.859Z,24.04
2018-08-11T05:02:41.855Z,24.10
2018-08-11T05:03:41.845Z,24.04
2018-08-11T05:04:41.839Z,24.09
2018-08-11T05:05:41.836Z,24.04
2018-08-11T05:06:41.828Z,24.06
2018-08-11T05:07:41.821Z,23.99
2018-08-11T05:08:41.814Z,24.04
2018-08-11T05:09:41.815Z,24.11
2018-08-11T05:10:41.807Z,24.04
2018-08-11T05:11:41.800Z,24.09
2018-08-11T05:12:41.795Z,24.10
2018-08-11T05:13:41.827Z,24.16
2018-08-11T05:14:41.782Z,24.09
2018-08-11T05:15:41.775Z,24.11
2018-08-11T05:16:41.794Z,24.14
2018-08-11T05:17:41.777Z,24.19
2018-08-11T05:18:41.762Z,24.19
2018-08-11T05:19:41.765Z,24.18
2018-08-11T05:20:41.752Z,24.18
2018-08-11T05:21:41.744Z,24.31
2018-08-11T05:22:41.740Z,24.21
2018-08-11T05:23:41.728Z,24.28
2018-08-11T05:24:41.726Z,24.18
2018-08-11T05:25:41.721Z,24.29
2018-08-11T05:26:41.715Z,24.18
2018-08-11T05:27:41.714Z,24.25
2018-08-11T05:28:41.704Z,24.25
2018-08-11T05:29:41.699Z,24.19
2018-08-11T05:30:41.694Z,24.21
2018-08-11T05:31:41.688Z,24.19
2018-08-11T05:32:41.683Z,24.18
2018-08-11T05:33:41.677Z,24.04
2018-08-11T05:34:41.672Z,24.19
2018-08-11T05:35:41.666Z,24.13
2018-08-11T05:36:41.664Z,24.16
2018-08-11T05:37:41.657Z,24.19
2018-08-11T05:38:41.654Z,24.24
2018-08-11T05:39:41.639Z,24.21
2018-08-11T05:40:41.635Z,24.19
2018-08-11T05:41:41.705Z,24.22
2018-08-11T05:42:41.624Z,24.24
2018-08-11T05:43:41.621Z,24.18
2018-08-11T05:44:41.618Z,24.21
2018-08-11T05:45:41.627Z,24.18
2018-08-11T05:46:41.607Z,24.21
2018-08-11T05:47:41.600Z,24.21
2018-08-11T05:48:41.593Z,24.26
2018-08-11T05:49:41.589Z,24.32
2018-08-11T05:50:41.585Z,24.26
2018-08-11T05:51:41.579Z,24.34
2018-08-11T05:52:41.571Z,24.32
2018-08-11T05:53:41.572Z,24.32
2018-08-11T05:54:41.560Z,24.37
2018-08-11T05:55:41.555Z,24.44
2018-08-11T05:56:41.549Z,24.40
2018-08-11T05:57:41.539Z,24.46
2018-08-11T05:58:41.539Z,24.51
2018-08-11T05:59:41.531Z,24.47
2018-08-11T06:00:41.527Z,24.46
2018-08-11T06:01:41.521Z,24.50
2018-08-11T06:02:41.524Z,24.46
2018-08-11T06:03:41.514Z,24.43
2018-08-11T06:04:41.503Z,24.46
2018-08-11T06:05:41.500Z,24.46
2018-08-11T06:06:41.493Z,24.48
2018-08-11T06:07:41.488Z,24.48
2018-08-11T06:08:41.484Z,24.47
2018-08-11T06:09:41.477Z,24.59
2018-08-11T06:10:41.477Z,24.55
2018-08-11T06:11:41.467Z,24.61
2018-08-11T06:12:41.458Z,24.58
2018-08-11T06:13:41.461Z,24.61
2018-08-11T06:14:41.451Z,24.51
2018-08-11T06:15:41.447Z,24.59
2018-08-11T06:16:41.440Z,24.55
2018-08-11T06:17:41.433Z,24.46
2018-08-11T06:18:41.431Z,24.48
2018-08-11T06:19:41.427Z,24.46
2018-08-11T06:20:41.424Z,24.50
2018-08-11T06:21:41.411Z,24.48
2018-08-11T06:22:41.407Z,24.44
2018-08-11T06:23:41.401Z,24.48
2018-08-11T06:24:41.396Z,24.47
2018-08-11T06:25:41.390Z,24.59
2018-08-11T06:26:41.390Z,24.61
2018-08-11T06:27:41.384Z,24.62
2018-08-11T06:28:41.375Z,24.62
2018-08-11T06:29:41.371Z,24.63
2018-08-11T06:30:41.369Z,24.65
2018-08-11T06:31:41.422Z,24.69
2018-08-11T06:32:41.353Z,24.66
2018-08-11T06:33:41.351Z,24.68
2018-08-11T06:34:41.342Z,24.68
2018-08-11T06:35:41.336Z,24.65
2018-08-11T06:36:41.334Z,24.71
2018-08-11T06:37:41.322Z,24.71
2018-08-11T06:38:41.319Z,24.66
2018-08-11T06:39:41.315Z,24.79
2018-08-11T06:40:41.374Z,24.81
2018-08-11T06:41:41.300Z,24.79
2018-08-11T06:42:41.296Z,24.75
2018-08-11T06:43:41.296Z,24.79
2018-08-11T06:44:41.282Z,24.74
2018-08-11T06:45:41.279Z,24.88
2018-08-11T06:46:41.324Z,24.88
2018-08-11T06:47:41.269Z,24.84
2018-08-11T06:48:41.265Z,24.96
2018-08-11T06:49:41.249Z,25.03
2018-08-11T06:50:41.245Z,25.00
2018-08-11T06:51:41.239Z,25.01
2018-08-11T06:52:41.238Z,25.09
2018-08-11T06:53:41.229Z,25.15
2018-08-11T06:54:41.226Z,25.18
2018-08-11T06:55:41.256Z,25.18
2018-08-11T06:56:41.208Z,25.24
2018-08-11T06:57:41.202Z,25.22
2018-08-11T06:58:41.199Z,25.21
2018-08-11T06:59:41.227Z,25.33
2018-08-11T07:00:41.186Z,25.24
2018-08-11T07:01:41.178Z,25.30
2018-08-11T07:02:41.171Z,25.37
2018-08-11T07:03:41.166Z,25.34
2018-08-11T07:04:41.159Z,25.31
2018-08-11T07:05:41.151Z,25.36
2018-08-11T07:06:41.188Z,25.40
2018-08-11T07:07:41.146Z,25.52
2018-08-11T07:08:41.130Z,25.51
2018-08-11T07:09:41.126Z,25.48
2018-08-11T07:10:41.122Z,25.48
2018-08-11T07:11:41.113Z,25.51
2018-08-11T07:12:41.108Z,25.52
2018-08-11T07:13:41.100Z,25.44
2018-08-11T07:14:41.097Z,25.41
2018-08-11T07:15:41.100Z,25.52
2018-08-11T07:16:41.084Z,25.46
2018-08-11T07:17:41.106Z,25.52
2018-08-11T07:18:41.070Z,25.56
2018-08-11T07:19:41.066Z,25.54
2018-08-11T07:20:41.056Z,25.56
2018-08-11T07:21:41.054Z,25.61
2018-08-11T07:22:41.052Z,25.51
2018-08-11T07:23:41.037Z,25.56
2018-08-11T07:24:41.031Z,25.61
2018-08-11T07:25:41.028Z,25.59
2018-08-11T07:26:41.023Z,25.54
2018-08-11T07:27:41.013Z,25.54
2018-08-11T07:28:41.009Z,25.56
2018-08-11T07:29:41.001Z,25.61
2018-08-11T07:30:41.002Z,25.61
2018-08-11T07:31:40.987Z,25.70
2018-08-11T07:32:41.001Z,25.68
2018-08-11T07:33:40.975Z,25.74
2018-08-11T07:34:40.979Z,25.81
2018-08-11T07:35:40.963Z,25.83
2018-08-11T07:36:41.030Z,25.80
2018-08-11T07:37:40.981Z,25.89
2018-08-11T07:38:40.943Z,25.91
2018-08-11T07:39:40.939Z,25.96
2018-08-11T07:40:40.930Z,26.06
2018-08-11T07:41:40.925Z,26.04
2018-08-11T07:42:40.922Z,26.10
2018-08-11T07:43:40.912Z,26.10
2018-08-11T07:44:40.903Z,26.03
2018-08-11T07:45:40.902Z,25.98
2018-08-11T07:46:40.895Z,25.96
2018-08-11T07:47:40.905Z,26.03
2018-08-11T07:48:40.881Z,26.13
2018-08-11T07:49:40.877Z,26.15
2018-08-11T07:50:40.871Z,26.11
2018-08-11T07:51:40.861Z,26.15
2018-08-11T07:52:40.855Z,26.24
2018-08-11T07:53:40.859Z,26.23
2018-08-11T07:54:40.854Z,26.22
2018-08-11T07:55:40.841Z,26.27
2018-08-11T07:56:40.833Z,26.29
2018-08-11T07:57:40.829Z,26.30
2018-08-11T07:58:40.827Z,26.34
2018-08-11T07:59:40.816Z,26.33
2018-08-11T08:00:40.809Z,26.44
2018-08-11T08:01:40.809Z,26.46
2018-08-11T08:02:40.799Z,26.46
2018-08-11T08:03:40.805Z,26.49
2018-08-11T08:04:40.786Z,26.49
2018-08-11T08:05:40.778Z,26.49
2018-08-11T08:06:40.771Z,26.48
2018-08-11T08:07:40.768Z,26.53
2018-08-11T08:08:40.763Z,26.45
2018-08-11T08:09:40.759Z,26.48
2018-08-11T08:10:40.749Z,26.45
2018-08-11T08:11:40.745Z,26.48
2018-08-11T08:12:40.746Z,26.42
2018-08-11T08:13:40.760Z,26.46
2018-08-11T08:14:40.728Z,26.48
2018-08-11T08:15:40.722Z,26.48
2018-08-11T08:16:40.713Z,26.61
2018-08-11T08:17:40.712Z,26.56
2018-08-11T08:18:40.703Z,26.67
2018-08-11T08:19:40.702Z,26.68
2018-08-11T08:20:40.693Z,26.68
2018-08-11T08:21:40.692Z,26.70
2018-08-11T08:22:40.677Z,26.78
2018-08-11T08:23:40.678Z,26.71
2018-08-11T08:24:40.670Z,26.79
2018-08-11T08:25:40.665Z,26.82
2018-08-11T08:26:40.672Z,26.79
2018-08-11T08:27:40.653Z,26.86
2018-08-11T08:28:40.646Z,26.89
2018-08-11T08:29:40.641Z,26.92
2018-08-11T08:30:40.634Z,27.00
2018-08-11T08:31:40.638Z,26.97
2018-08-11T08:32:40.623Z,27.01
2018-08-11T08:33:40.627Z,27.01
2018-08-11T08:34:40.619Z,27.01
2018-08-11T08:35:40.608Z,27.11
2018-08-11T08:36:40.600Z,27.03
2018-08-11T08:37:40.594Z,27.05
2018-08-11T08:38:40.593Z,27.04
2018-08-11T08:39:40.586Z,27.11
2018-08-11T08:40:40.578Z,27.08
2018-08-11T08:41:40.573Z,27.10
2018-08-11T08:42:40.568Z,27.03
2018-08-11T08:43:40.569Z,27.10
2018-08-11T08:44:40.560Z,27.03
2018-08-11T08:45:40.557Z,27.01
2018-08-11T08:46:40.545Z,27.10
2018-08-11T08:47:40.544Z,27.18
2018-08-11T08:48:40.532Z,27.25
2018-08-11T08:49:40.529Z,27.25
2018-08-11T08:50:40.522Z,27.34
2018-08-11T08:51:40.522Z,27.35
2018-08-11T08:52:40.512Z,27.40
2018-08-11T08:53:40.510Z,27.47
2018-08-11T08:54:40.504Z,27.58
2018-08-11T08:55:40.496Z,27.53
2018-08-11T08:56:40.488Z,27.57
2018-08-11T08:57:40.486Z,27.55
2018-08-11T08:58:40.474Z,27.60
2018-08-11T08:59:40.475Z,27.57
2018-08-11T09:00:40.473Z,27.60
2018-08-11T09:01:40.463Z,27.50
2018-08-11T09:02:40.461Z,27.55
2018-08-11T09:03:40.453Z,27.53
2018-08-11T09:04:40.448Z,27.52
2018-08-11T09:05:40.443Z,27.55
2018-08-11T09:06:40.436Z,27.66
2018-08-11T09:07:40.432Z,27.67
2018-08-11T09:08:40.431Z,27.67
2018-08-11T09:09:40.420Z,27.68
2018-08-11T09:10:40.420Z,27.79
2018-08-11T09:11:40.408Z,27.82
2018-08-11T09:12:40.406Z,27.82
2018-08-11T09:13:40.394Z,27.93
2018-08-11T09:14:40.390Z,27.95
2018-08-11T09:15:40.387Z,28.04
2018-08-11T09:16:40.384Z,27.98
2018-08-11T09:17:40.381Z,28.03
2018-08-11T09:18:40.373Z,28.00
2018-08-11T09:19:40.369Z,28.13
2018-08-11T09:20:40.362Z,28.16
2018-08-11T09:21:40.360Z,28.18
2018-08-11T09:22:40.351Z,28.18
2018-08-11T09:23:40.348Z,28.22
2018-08-11T09:24:40.345Z,28.28
2018-08-11T09:25:40.341Z,28.18
2018-08-11T09:26:40.332Z,28.27
2018-08-11T09:27:40.333Z,28.19
2018-08-11T09:28:40.322Z,28.22
2018-08-11T09:29:40.319Z,28.13
2018-08-11T09:30:40.311Z,28.12
2018-08-11T09:31:40.307Z,28.12
2018-08-11T09:32:40.301Z,28.12
2018-08-11T09:33:40.298Z,28.09
2018-08-11T09:34:40.292Z,28.18
2018-08-11T09:35:40.288Z,28.15
2018-08-11T09:36:40.285Z,28.16
2018-08-11T09:37:40.275Z,28.13
2018-08-11T09:38:40.273Z,28.13
2018-08-11T09:39:40.266Z,28.27
2018-08-11T09:40:40.260Z,28.20
2018-08-11T09:41:40.256Z,28.28
2018-08-11T09:42:40.251Z,28.35
2018-08-11T09:43:40.248Z,28.31
2018-08-11T09:44:40.240Z,28.49
2018-08-11T09:45:40.329Z,28.52
2018-08-11T09:46:40.231Z,28.55
2018-08-11T09:47:40.245Z,28.45
2018-08-11T09:48:40.224Z,28.50
2018-08-11T09:49:40.217Z,28.52
2018-08-11T09:50:40.209Z,28.53
2018-08-11T09:51:40.206Z,28.49
2018-08-11T09:52:40.201Z,28.50
2018-08-11T09:53:40.195Z,28.47
2018-08-11T09:54:40.191Z,28.55
2018-08-11T09:55:40.198Z,28.50
2018-08-11T09:56:40.182Z,28.56
2018-08-11T09:57:40.175Z,28.56
2018-08-11T09:58:40.225Z,28.59
2018-08-11T09:59:40.169Z,28.59
2018-08-11T10:00:40.163Z,28.55
2018-08-11T10:01:40.161Z,28.56
2018-08-11T10:02:40.155Z,28.57
2018-08-11T10:03:40.153Z,28.70
2018-08-11T10:04:40.142Z,28.72
2018-08-11T10:05:40.139Z,28.83
2018-08-11T10:06:40.136Z,28.75
2018-08-11T10:07:40.121Z,28.75
2018-08-11T10:08:40.124Z,28.75
2018-08-11T10:09:40.119Z,28.77
2018-08-11T10:10:40.225Z,28.74
2018-08-11T10:11:40.111Z,28.78
2018-08-11T10:12:40.103Z,28.75
2018-08-11T10:13:40.111Z,28.78
2018-08-11T10:14:40.097Z,28.80
2018-08-11T10:15:40.098Z,28.86
2018-08-11T10:16:40.088Z,28.84
2018-08-11T10:17:40.084Z,28.86
2018-08-11T10:18:40.124Z,28.92
2018-08-11T10:19:40.074Z,28.84
2018-08-11T10:20:40.069Z,28.89
2018-08-11T10:21:40.068Z,28.86
2018-08-11T10:22:40.059Z,28.90
2018-08-11T10:23:40.058Z,28.96
2018-08-11T10:24:40.050Z,28.96
2018-08-11T10:25:40.048Z,29.02
2018-08-11T10:26:40.046Z,29.03
2018-08-11T10:27:40.040Z,29.00
2018-08-11T10:28:40.026Z,29.05
2018-08-11T10:29:40.027Z,28.89
2018-08-11T10:30:40.024Z,28.89
2018-08-11T10:31:40.019Z,28.82
2018-08-11T10:32:40.011Z,28.74
2018-08-11T10:33:40.008Z,28.74
2018-08-11T10:34:40.004Z,28.74
2018-08-11T10:35:40.002Z,28.70
2018-08-11T10:36:39.994Z,28.75
2018-08-11T10:37:39.991Z,28.77
2018-08-11T10:38:39.987Z,28.75
2018-08-11T10:39:39.998Z,28.82
2018-08-11T10:40:39.980Z,28.74
2018-08-11T10:41:39.973Z,28.75
2018-08-11T10:42:39.967Z,28.74
2018-08-11T10:43:39.965Z,28.75
2018-08-11T10:44:39.976Z,28.72
2018-08-11T10:45:39.956Z,28.75
2018-08-11T10:46:39.950Z,28.68
2018-08-11T10:47:39.947Z,28.75
2018-08-11T10:48:39.943Z,28.72
2018-08-11T10:49:39.938Z,28.71
2018-08-11T10:50:39.934Z,28.59
2018-08-11T10:51:39.924Z,28.60
2018-08-11T10:52:39.919Z,28.50
2018-08-11T10:53:39.915Z,28.53
2018-08-11T10:54:39.916Z,28.53
2018-08-11T10:55:39.908Z,28.52
2018-08-11T10:56:39.914Z,28.46
2018-08-11T10:57:39.899Z,28.49
2018-08-11T10:58:39.899Z,28.50
2018-08-11T10:59:39.893Z,28.49
2018-08-11T11:00:39.886Z,28.47
2018-08-11T11:01:39.880Z,28.53
2018-08-11T11:02:39.876Z,28.46
2018-08-11T11:03:39.882Z,28.56
2018-08-11T11:04:39.867Z,28.59
2018-08-11T11:05:39.859Z,28.62
2018-08-11T11:06:39.858Z,28.59
2018-08-11T11:07:39.854Z,28.56
2018-08-11T11:08:39.847Z,28.55
2018-08-11T11:09:39.847Z,28.55
2018-08-11T11:10:39.838Z,28.57
2018-08-11T11:11:39.832Z,28.59
2018-08-11T11:12:39.828Z,28.53
2018-08-11T11:13:39.958Z,28.53
2018-08-11T11:14:39.818Z,28.55
2018-08-11T11:15:39.823Z,28.55
2018-08-11T11:16:39.824Z,28.53
2018-08-11T11:17:39.804Z,28.57
2018-08-11T11:18:39.798Z,28.60
2018-08-11T11:19:39.796Z,28.64
2018-08-11T11:20:39.791Z,28.65
2018-08-11T11:21:39.810Z,28.60
2018-08-11T11:22:40.062Z,28.46
2018-08-11T11:23:39.781Z,28.55
2018-08-11T11:24:39.773Z,28.49
2018-08-11T11:25:39.768Z,28.47
2018-08-11T11:26:39.767Z,28.40
2018-08-11T11:27:39.760Z,28.35
2018-08-11T11:28:39.750Z,28.31
2018-08-11T11:29:39.751Z,28.33
2018-08-11T11:30:39.743Z,28.41
2018-08-11T11:31:39.740Z,28.35
2018-08-11T11:32:39.735Z,28.33
2018-08-11T11:33:39.730Z,28.34
2018-08-11T11:34:39.724Z,28.34
2018-08-11T11:35:39.721Z,28.31
2018-08-11T11:36:39.713Z,28.35
2018-08-11T11:37:39.712Z,28.28
2018-08-11T11:38:39.706Z,28.18
2018-08-11T11:39:39.705Z,28.28
2018-08-11T11:40:39.694Z,28.25
2018-08-11T11:41:39.688Z,28.27
2018-08-11T11:42:39.686Z,28.30
2018-08-11T11:43:39.687Z,28.28
2018-08-11T11:44:39.675Z,28.30
2018-08-11T11:45:39.670Z,28.25
2018-08-11T11:46:39.666Z,28.33
2018-08-11T11:47:39.693Z,28.27
2018-08-11T11:48:39.657Z,28.25
2018-08-11T11:49:39.658Z,28.30
2018-08-11T11:50:39.648Z,28.37
2018-08-11T11:51:39.676Z,28.31
2018-08-11T11:52:39.635Z,28.37
2018-08-11T11:53:39.644Z,28.41
2018-08-11T11:54:39.636Z,28.49
2018-08-11T11:55:39.656Z,28.45
2018-08-11T11:56:39.696Z,28.47
2018-08-11T11:57:39.618Z,28.47
2018-08-11T11:58:39.650Z,28.45
2018-08-11T11:59:39.682Z,28.55
2018-08-11T12:00:39.640Z,28.56
2018-08-11T12:01:39.656Z,28.49
2018-08-11T12:02:39.882Z,28.49
2018-08-11T12:03:39.795Z,28.47
2018-08-11T12:04:39.580Z,28.49
2018-08-11T12:05:39.789Z,28.49
2018-08-11T12:06:39.570Z,28.52
2018-08-11T12:07:39.566Z,28.53
2018-08-11T12:08:39.560Z,28.49
2018-08-11T12:09:39.554Z,28.50
2018-08-11T12:10:39.551Z,28.46
2018-08-11T12:11:39.547Z,28.46
2018-08-11T12:12:39.538Z,28.41
2018-08-11T12:13:39.540Z,28.34
2018-08-11T12:14:39.537Z,28.27
2018-08-11T12:15:39.538Z,28.22
2018-08-11T12:16:39.526Z,28.25
2018-08-11T12:17:39.527Z,28.15
2018-08-11T12:18:39.518Z,28.25
2018-08-11T12:19:39.511Z,28.28
2018-08-11T12:20:39.513Z,28.31
2018-08-11T12:21:39.499Z,28.27
2018-08-11T12:22:39.494Z,28.28
2018-08-11T12:23:39.490Z,28.22
2018-08-11T12:24:39.489Z,28.28
2018-08-11T12:25:39.488Z,28.27
2018-08-11T12:26:39.477Z,28.23
2018-08-11T12:27:39.471Z,28.23
2018-08-11T12:28:39.471Z,28.27
2018-08-11T12:29:39.464Z,28.22
2018-08-11T12:30:39.469Z,28.28
2018-08-11T12:31:39.455Z,28.31
2018-08-11T12:32:39.501Z,28.18
2018-08-11T12:33:39.444Z,28.19
2018-08-11T12:34:39.483Z,28.27
2018-08-11T12:35:39.440Z,28.19
2018-08-11T12:36:39.433Z,28.08
2018-08-11T12:37:39.422Z,28.12
2018-08-11T12:38:39.419Z,28.10
2018-08-11T12:39:39.415Z,28.19
2018-08-11T12:40:39.409Z,28.20
2018-08-11T12:41:39.404Z,28.19
2018-08-11T12:42:39.399Z,28.22
2018-08-11T12:43:39.393Z,28.16
2018-08-11T12:44:39.403Z,28.33
2018-08-11T12:45:39.434Z,28.28
2018-08-11T12:46:39.384Z,28.25
2018-08-11T12:47:39.372Z,28.31
2018-08-11T12:48:39.370Z,28.30
2018-08-11T12:49:39.364Z,28.25
2018-08-11T12:50:39.362Z,28.31
2018-08-11T12:51:39.354Z,28.25
2018-08-11T12:52:39.349Z,28.22